sensor_id;sensor_type;location;lat;lon;timestamp;temperature;humidity
46438;DHT22;32137;48.728;9.142;2023-07-20T00:02:05;20.90;1.00
46438;DHT22;32137;48.728;9.142;2023-07-20T00:04:32;20.90;1.00
46438;DHT22;32137;48.728;9.142;2023-07-20T00:06:58;20.70;1.00
46438;DHT22;32137;48.728;9.142;2023-07-20T00:09:26;20.70;1.00
46438;DHT22;32137;48.728;9.142;2023-07-20T00:11:52;20.70;1.00
46438;DHT22;32137;48.728;9.142;2023-07-20T00:14:18;20.70;1.00
46438;DHT22;32137;48.728;9.142;2023-07-20T00:16:44;20.60;1.00
46438;DHT22;32137;48.728;9.142;2023-07-20T00:19:14;20.70;1.00
46438;DHT22;32137;48.728;9.142;2023-07-20T00:21:39;20.60;1.00
46438;DHT22;32137;48.728;9.142;2023-07-20T00:24:06;20.50;1.00
46438;DHT22;32137;48.728;9.142;2023-07-20T00:26:31;20.50;1.00
46438;DHT22;32137;48.728;9.142;2023-07-20T00:28:57;20.50;1.00
46438;DHT22;32137;48.728;9.142;2023-07-20T00:31:22;20.40;2.30
46438;DHT22;32137;48.728;9.142;2023-07-20T00:33:48;20.40;2.60
46438;DHT22;32137;48.728;9.142;2023-07-20T00:36:13;20.40;1.70
46438;DHT22;32137;48.728;9.142;2023-07-20T00:38:39;20.40;4.00
46438;DHT22;32137;48.728;9.142;2023-07-20T00:41:06;20.40;16.80
46438;DHT22;32137;48.728;9.142;2023-07-20T00:43:31;20.30;22.50
46438;DHT22;32137;48.728;9.142;2023-07-20T00:45:57;20.20;24.50
46438;DHT22;32137;48.728;9.142;2023-07-20T00:48:22;20.20;45.90
46438;DHT22;32137;48.728;9.142;2023-07-20T00:50:48;20.20;22.90
46438;DHT22;32137;48.728;9.142;2023-07-20T00:53:14;20.20;29.70
46438;DHT22;32137;48.728;9.142;2023-07-20T00:55:39;20.20;45.30
46438;DHT22;32137;48.728;9.142;2023-07-20T00:58:05;20.20;25.20
46438;DHT22;32137;48.728;9.142;2023-07-20T01:00:30;20.20;29.40
46438;DHT22;32137;48.728;9.142;2023-07-20T01:02:56;20.20;25.10
46438;DHT22;32137;48.728;9.142;2023-07-20T01:05:22;20.10;9.40
46438;DHT22;32137;48.728;9.142;2023-07-20T01:07:52;20.10;25.50
46438;DHT22;32137;48.728;9.142;2023-07-20T01:12:51;20.10;25.50
46438;DHT22;32137;48.728;9.142;2023-07-20T01:15:17;20.00;23.20
46438;DHT22;32137;48.728;9.142;2023-07-20T01:17:43;20.00;31.00
46438;DHT22;32137;48.728;9.142;2023-07-20T01:20:10;20.00;56.80
46438;DHT22;32137;48.728;9.142;2023-07-20T01:22:47;20.00;38.50
46438;DHT22;32137;48.728;9.142;2023-07-20T01:30:43;19.90;48.30
46438;DHT22;32137;48.728;9.142;2023-07-20T01:33:11;19.80;58.50
46438;DHT22;32137;48.728;9.142;2023-07-20T01:35:38;19.80;65.60
46438;DHT22;32137;48.728;9.142;2023-07-20T01:38:04;19.80;65.90
46438;DHT22;32137;48.728;9.142;2023-07-20T01:40:30;19.70;92.20
46438;DHT22;32137;48.728;9.142;2023-07-20T01:42:55;19.70;80.20
46438;DHT22;32137;48.728;9.142;2023-07-20T01:45:21;19.70;89.80
46438;DHT22;32137;48.728;9.142;2023-07-20T01:47:47;19.70;84.60
46438;DHT22;32137;48.728;9.142;2023-07-20T01:50:12;19.70;80.20
46438;DHT22;32137;48.728;9.142;2023-07-20T01:52:38;19.70;92.30
46438;DHT22;32137;48.728;9.142;2023-07-20T01:55:03;19.70;93.70
46438;DHT22;32137;48.728;9.142;2023-07-20T01:57:29;19.60;97.10
46438;DHT22;32137;48.728;9.142;2023-07-20T01:59:55;19.60;92.20
46438;DHT22;32137;48.728;9.142;2023-07-20T02:02:20;19.60;99.90
46438;DHT22;32137;48.728;9.142;2023-07-20T02:04:46;19.50;99.90
46438;DHT22;32137;48.728;9.142;2023-07-20T02:07:11;19.50;99.90
46438;DHT22;32137;48.728;9.142;2023-07-20T02:09:37;19.60;99.90
46438;DHT22;32137;48.728;9.142;2023-07-20T02:12:02;19.50;99.90
46438;DHT22;32137;48.728;9.142;2023-07-20T02:14:28;19.50;99.90
46438;DHT22;32137;48.728;9.142;2023-07-20T02:16:53;19.50;99.90
46438;DHT22;32137;48.728;9.142;2023-07-20T02:19:24;19.40;99.90
46438;DHT22;32137;48.728;9.142;2023-07-20T02:21:50;19.40;99.90
46438;DHT22;32137;48.728;9.142;2023-07-20T02:24:15;19.40;99.90
46438;DHT22;32137;48.728;9.142;2023-07-20T02:26:41;19.40;99.90
46438;DHT22;32137;48.728;9.142;2023-07-20T02:29:07;19.30;99.90
46438;DHT22;32137;48.728;9.142;2023-07-20T02:31:33;19.30;99.90
46438;DHT22;32137;48.728;9.142;2023-07-20T02:33:58;19.30;99.90
46438;DHT22;32137;48.728;9.142;2023-07-20T02:36:24;19.30;99.90
46438;DHT22;32137;48.728;9.142;2023-07-20T02:38:49;19.20;99.90
46438;DHT22;32137;48.728;9.142;2023-07-20T02:41:15;19.20;99.90
46438;DHT22;32137;48.728;9.142;2023-07-20T02:43:40;19.20;99.90
46438;DHT22;32137;48.728;9.142;2023-07-20T02:46:06;19.10;99.90
46438;DHT22;32137;48.728;9.142;2023-07-20T02:48:31;19.10;99.90
46438;DHT22;32137;48.728;9.142;2023-07-20T02:50:57;19.10;99.90
46438;DHT22;32137;48.728;9.142;2023-07-20T02:53:22;19.10;99.90
46438;DHT22;32137;48.728;9.142;2023-07-20T02:55:48;19.00;99.90
46438;DHT22;32137;48.728;9.142;2023-07-20T02:58:13;19.00;99.90
46438;DHT22;32137;48.728;9.142;2023-07-20T03:00:39;19.00;99.90
46438;DHT22;32137;48.728;9.142;2023-07-20T03:03:04;18.90;99.90
46438;DHT22;32137;48.728;9.142;2023-07-20T03:05:34;18.90;99.90
46438;DHT22;32137;48.728;9.142;2023-07-20T03:08:00;18.90;99.90
46438;DHT22;32137;48.728;9.142;2023-07-20T03:10:27;18.90;99.90
46438;DHT22;32137;48.728;9.142;2023-07-20T03:12:53;18.90;99.90
46438;DHT22;32137;48.728;9.142;2023-07-20T03:15:18;18.90;99.90
46438;DHT22;32137;48.728;9.142;2023-07-20T03:17:44;18.90;99.90
46438;DHT22;32137;48.728;9.142;2023-07-20T03:20:09;18.90;99.90
46438;DHT22;32137;48.728;9.142;2023-07-20T03:22:35;18.90;99.90
46438;DHT22;32137;48.728;9.142;2023-07-20T03:25:01;18.90;99.90
46438;DHT22;32137;48.728;9.142;2023-07-20T03:27:26;18.90;99.90
46438;DHT22;32137;48.728;9.142;2023-07-20T03:29:52;18.90;99.90
46438;DHT22;32137;48.728;9.142;2023-07-20T03:32:17;18.90;99.90
46438;DHT22;32137;48.728;9.142;2023-07-20T03:34:43;18.90;99.90
46438;DHT22;32137;48.728;9.142;2023-07-20T03:37:09;18.90;99.90
46438;DHT22;32137;48.728;9.142;2023-07-20T03:39:35;18.80;99.90
46438;DHT22;32137;48.728;9.142;2023-07-20T03:42:00;18.80;99.90
46438;DHT22;32137;48.728;9.142;2023-07-20T03:44:26;18.80;99.90
46438;DHT22;32137;48.728;9.142;2023-07-20T03:46:51;18.70;99.90
46438;DHT22;32137;48.728;9.142;2023-07-20T03:49:16;18.70;99.90
46438;DHT22;32137;48.728;9.142;2023-07-20T03:51:43;18.70;99.90
46438;DHT22;32137;48.728;9.142;2023-07-20T03:54:08;18.70;99.90
46438;DHT22;32137;48.728;9.142;2023-07-20T03:56:34;18.70;99.90
46438;DHT22;32137;48.728;9.142;2023-07-20T03:59:01;18.70;99.90
46438;DHT22;32137;48.728;9.142;2023-07-20T04:01:26;18.70;99.90
46438;DHT22;32137;48.728;9.142;2023-07-20T04:03:52;18.70;99.90
46438;DHT22;32137;48.728;9.142;2023-07-20T04:06:17;18.70;99.90
46438;DHT22;32137;48.728;9.142;2023-07-20T04:08:43;18.70;99.90
46438;DHT22;32137;48.728;9.142;2023-07-20T04:11:09;18.60;99.90
46438;DHT22;32137;48.728;9.142;2023-07-20T04:13:34;18.70;99.90
46438;DHT22;32137;48.728;9.142;2023-07-20T04:16:00;18.70;99.90
46438;DHT22;32137;48.728;9.142;2023-07-20T04:18:25;18.70;99.90
46438;DHT22;32137;48.728;9.142;2023-07-20T04:20:54;18.70;99.90
46438;DHT22;32137;48.728;9.142;2023-07-20T04:23:19;18.70;99.90
46438;DHT22;32137;48.728;9.142;2023-07-20T04:25:45;18.80;99.90
46438;DHT22;32137;48.728;9.142;2023-07-20T04:28:10;18.70;99.90
46438;DHT22;32137;48.728;9.142;2023-07-20T04:30:36;18.70;99.90
46438;DHT22;32137;48.728;9.142;2023-07-20T04:33:02;18.70;99.90
46438;DHT22;32137;48.728;9.142;2023-07-20T04:38:13;18.80;99.90
46438;DHT22;32137;48.728;9.142;2023-07-20T04:40:40;18.80;99.90
46438;DHT22;32137;48.728;9.142;2023-07-20T04:43:05;18.80;99.90
46438;DHT22;32137;48.728;9.142;2023-07-20T04:45:31;18.70;99.90
46438;DHT22;32137;48.728;9.142;2023-07-20T04:47:56;18.80;99.90
46438;DHT22;32137;48.728;9.142;2023-07-20T04:50:22;18.80;99.90
46438;DHT22;32137;48.728;9.142;2023-07-20T04:52:49;18.90;99.90
46438;DHT22;32137;48.728;9.142;2023-07-20T04:55:15;18.90;99.90
46438;DHT22;32137;48.728;9.142;2023-07-20T04:57:40;19.00;99.90
46438;DHT22;32137;48.728;9.142;2023-07-20T05:00:06;18.90;99.90
46438;DHT22;32137;48.728;9.142;2023-07-20T05:02:31;19.00;99.90
46438;DHT22;32137;48.728;9.142;2023-07-20T05:04:57;18.90;99.90
46438;DHT22;32137;48.728;9.142;2023-07-20T05:07:22;19.00;99.90
46438;DHT22;32137;48.728;9.142;2023-07-20T05:09:47;19.00;99.90
46438;DHT22;32137;48.728;9.142;2023-07-20T05:12:13;18.90;99.90
46438;DHT22;32137;48.728;9.142;2023-07-20T05:14:38;18.90;99.90
46438;DHT22;32137;48.728;9.142;2023-07-20T05:17:04;19.00;99.90
46438;DHT22;32137;48.728;9.142;2023-07-20T05:19:29;19.00;99.90
46438;DHT22;32137;48.728;9.142;2023-07-20T05:21:55;19.00;99.90
46438;DHT22;32137;48.728;9.142;2023-07-20T05:24:21;18.90;99.90
46438;DHT22;32137;48.728;9.142;2023-07-20T05:26:47;19.00;99.90
46438;DHT22;32137;48.728;9.142;2023-07-20T05:29:12;19.00;99.90
46438;DHT22;32137;48.728;9.142;2023-07-20T05:31:38;19.10;99.90
46438;DHT22;32137;48.728;9.142;2023-07-20T05:34:03;19.10;99.90
46438;DHT22;32137;48.728;9.142;2023-07-20T05:36:29;19.20;99.90
46438;DHT22;32137;48.728;9.142;2023-07-20T05:38:56;19.10;99.90
46438;DHT22;32137;48.728;9.142;2023-07-20T05:41:21;19.10;99.90
46438;DHT22;32137;48.728;9.142;2023-07-20T05:43:48;19.00;99.90
46438;DHT22;32137;48.728;9.142;2023-07-20T05:46:13;19.10;99.90
46438;DHT22;32137;48.728;9.142;2023-07-20T05:48:38;19.10;99.90
46438;DHT22;32137;48.728;9.142;2023-07-20T05:51:05;19.10;99.90
46438;DHT22;32137;48.728;9.142;2023-07-20T05:53:30;19.10;99.90
46438;DHT22;32137;48.728;9.142;2023-07-20T05:55:56;19.20;99.90
46438;DHT22;32137;48.728;9.142;2023-07-20T05:58:21;19.20;99.90
46438;DHT22;32137;48.728;9.142;2023-07-20T06:00:48;19.30;99.90
46438;DHT22;32137;48.728;9.142;2023-07-20T06:03:14;19.30;99.90
46438;DHT22;32137;48.728;9.142;2023-07-20T06:05:42;19.20;99.90
46438;DHT22;32137;48.728;9.142;2023-07-20T06:08:07;19.30;99.90
46438;DHT22;32137;48.728;9.142;2023-07-20T06:10:33;19.30;99.90
46438;DHT22;32137;48.728;9.142;2023-07-20T06:12:58;19.30;99.90
46438;DHT22;32137;48.728;9.142;2023-07-20T06:15:25;19.40;99.90
46438;DHT22;32137;48.728;9.142;2023-07-20T06:17:51;19.50;99.90
46438;DHT22;32137;48.728;9.142;2023-07-20T06:20:16;19.50;99.90
46438;DHT22;32137;48.728;9.142;2023-07-20T06:22:42;19.50;99.90
46438;DHT22;32137;48.728;9.142;2023-07-20T06:25:07;19.50;99.90
46438;DHT22;32137;48.728;9.142;2023-07-20T06:27:33;19.60;99.90
46438;DHT22;32137;48.728;9.142;2023-07-20T06:29:58;19.60;99.90
46438;DHT22;32137;48.728;9.142;2023-07-20T06:32:24;19.60;99.90
46438;DHT22;32137;48.728;9.142;2023-07-20T06:34:49;19.60;99.90
46438;DHT22;32137;48.728;9.142;2023-07-20T06:37:14;19.70;99.90
46438;DHT22;32137;48.728;9.142;2023-07-20T06:39:40;19.60;99.90
46438;DHT22;32137;48.728;9.142;2023-07-20T06:42:05;19.60;99.90
46438;DHT22;32137;48.728;9.142;2023-07-20T06:44:31;19.70;99.90
46438;DHT22;32137;48.728;9.142;2023-07-20T06:46:56;19.70;99.90
46438;DHT22;32137;48.728;9.142;2023-07-20T06:49:25;19.70;99.90
46438;DHT22;32137;48.728;9.142;2023-07-20T06:51:51;19.60;99.90
46438;DHT22;32137;48.728;9.142;2023-07-20T06:54:17;19.60;99.90
46438;DHT22;32137;48.728;9.142;2023-07-20T06:56:42;19.60;99.90
46438;DHT22;32137;48.728;9.142;2023-07-20T06:59:08;19.60;99.90
46438;DHT22;32137;48.728;9.142;2023-07-20T07:01:33;19.60;99.90
46438;DHT22;32137;48.728;9.142;2023-07-20T07:03:59;19.60;99.90
46438;DHT22;32137;48.728;9.142;2023-07-20T07:06:24;19.60;99.90
46438;DHT22;32137;48.728;9.142;2023-07-20T07:08:50;19.60;99.90
46438;DHT22;32137;48.728;9.142;2023-07-20T07:11:16;19.50;99.90
46438;DHT22;32137;48.728;9.142;2023-07-20T07:13:41;19.50;99.90
46438;DHT22;32137;48.728;9.142;2023-07-20T07:16:07;19.50;99.90
46438;DHT22;32137;48.728;9.142;2023-07-20T07:18:32;19.40;99.90
46438;DHT22;32137;48.728;9.142;2023-07-20T07:20:58;19.40;99.90
46438;DHT22;32137;48.728;9.142;2023-07-20T07:23:23;19.40;99.90
46438;DHT22;32137;48.728;9.142;2023-07-20T07:25:48;19.30;99.90
46438;DHT22;32137;48.728;9.142;2023-07-20T07:28:14;19.30;99.90
46438;DHT22;32137;48.728;9.142;2023-07-20T07:30:40;19.30;99.90
46438;DHT22;32137;48.728;9.142;2023-07-20T07:33:05;19.30;99.90
46438;DHT22;32137;48.728;9.142;2023-07-20T07:35:31;19.30;99.90
46438;DHT22;32137;48.728;9.142;2023-07-20T07:37:57;19.30;99.90
46438;DHT22;32137;48.728;9.142;2023-07-20T07:40:22;19.40;99.90
46438;DHT22;32137;48.728;9.142;2023-07-20T07:42:47;19.30;99.90
46438;DHT22;32137;48.728;9.142;2023-07-20T07:45:13;19.30;99.90
46438;DHT22;32137;48.728;9.142;2023-07-20T07:47:40;19.40;99.90
46438;DHT22;32137;48.728;9.142;2023-07-20T07:50:05;19.50;99.90
46438;DHT22;32137;48.728;9.142;2023-07-20T07:52:31;19.60;99.90
46438;DHT22;32137;48.728;9.142;2023-07-20T07:54:57;19.60;99.90
46438;DHT22;32137;48.728;9.142;2023-07-20T07:57:23;19.70;99.90
46438;DHT22;32137;48.728;9.142;2023-07-20T07:59:48;19.70;99.90
46438;DHT22;32137;48.728;9.142;2023-07-20T08:02:13;19.70;99.90
46438;DHT22;32137;48.728;9.142;2023-07-20T08:04:39;19.80;99.90
46438;DHT22;32137;48.728;9.142;2023-07-20T08:07:05;19.80;99.90
46438;DHT22;32137;48.728;9.142;2023-07-20T08:09:30;19.80;99.90
46438;DHT22;32137;48.728;9.142;2023-07-20T08:11:56;19.90;99.90
46438;DHT22;32137;48.728;9.142;2023-07-20T08:14:21;20.00;99.90
46438;DHT22;32137;48.728;9.142;2023-07-20T08:16:47;20.00;99.90
46438;DHT22;32137;48.728;9.142;2023-07-20T08:19:12;20.10;99.90
46438;DHT22;32137;48.728;9.142;2023-07-20T08:21:38;20.20;99.90
46438;DHT22;32137;48.728;9.142;2023-07-20T08:24:03;20.20;99.90
46438;DHT22;32137;48.728;9.142;2023-07-20T08:26:29;20.10;99.90
46438;DHT22;32137;48.728;9.142;2023-07-20T08:28:54;20.10;99.90
46438;DHT22;32137;48.728;9.142;2023-07-20T08:31:20;20.20;99.90
46438;DHT22;32137;48.728;9.142;2023-07-20T08:33:46;20.30;99.90
46438;DHT22;32137;48.728;9.142;2023-07-20T08:36:11;20.50;99.90
46438;DHT22;32137;48.728;9.142;2023-07-20T08:38:36;20.60;69.40
46438;DHT22;32137;48.728;9.142;2023-07-20T08:41:02;20.70;82.10
46438;DHT22;32137;48.728;9.142;2023-07-20T08:43:28;20.70;69.60
46438;DHT22;32137;48.728;9.142;2023-07-20T08:45:54;20.70;74.50
46438;DHT22;32137;48.728;9.142;2023-07-20T08:48:20;20.70;76.20
46438;DHT22;32137;48.728;9.142;2023-07-20T08:50:47;20.70;67.20
46438;DHT22;32137;48.728;9.142;2023-07-20T08:53:12;20.70;98.10
46438;DHT22;32137;48.728;9.142;2023-07-20T08:55:38;20.70;92.80
46438;DHT22;32137;48.728;9.142;2023-07-20T08:58:04;20.60;86.30
46438;DHT22;32137;48.728;9.142;2023-07-20T09:00:33;20.50;99.90
46438;DHT22;32137;48.728;9.142;2023-07-20T09:02:59;20.40;99.90
46438;DHT22;32137;48.728;9.142;2023-07-20T09:05:28;20.40;99.90
46438;DHT22;32137;48.728;9.142;2023-07-20T09:07:53;20.50;99.90
46438;DHT22;32137;48.728;9.142;2023-07-20T09:10:22;20.80;82.40
46438;DHT22;32137;48.728;9.142;2023-07-20T09:12:47;20.80;92.90
46438;DHT22;32137;48.728;9.142;2023-07-20T09:15:14;20.90;5.80
46438;DHT22;32137;48.728;9.142;2023-07-20T09:17:45;20.90;16.00
46438;DHT22;32137;48.728;9.142;2023-07-20T09:20:10;21.00;12.80
46438;DHT22;32137;48.728;9.142;2023-07-20T09:22:39;20.90;1.00
46438;DHT22;32137;48.728;9.142;2023-07-20T09:25:14;20.90;1.00
46438;DHT22;32137;48.728;9.142;2023-07-20T09:27:46;21.10;1.00
46438;DHT22;32137;48.728;9.142;2023-07-20T09:30:13;21.20;1.00
46438;DHT22;32137;48.728;9.142;2023-07-20T09:35:06;21.20;1.00
46438;DHT22;32137;48.728;9.142;2023-07-20T09:37:32;21.20;1.00
46438;DHT22;32137;48.728;9.142;2023-07-20T09:39:58;21.20;1.00
46438;DHT22;32137;48.728;9.142;2023-07-20T09:42:24;21.10;1.00
46438;DHT22;32137;48.728;9.142;2023-07-20T09:44:50;21.20;1.00
46438;DHT22;32137;48.728;9.142;2023-07-20T09:47:21;21.10;1.00
46438;DHT22;32137;48.728;9.142;2023-07-20T09:49:47;21.10;1.00
46438;DHT22;32137;48.728;9.142;2023-07-20T09:52:12;21.10;1.00
46438;DHT22;32137;48.728;9.142;2023-07-20T09:54:38;21.20;1.00
46438;DHT22;32137;48.728;9.142;2023-07-20T09:57:06;21.20;1.00
46438;DHT22;32137;48.728;9.142;2023-07-20T09:59:32;21.20;1.00
46438;DHT22;32137;48.728;9.142;2023-07-20T10:01:57;21.10;1.00
46438;DHT22;32137;48.728;9.142;2023-07-20T10:04:24;21.20;1.00
46438;DHT22;32137;48.728;9.142;2023-07-20T10:06:50;21.30;1.00
46438;DHT22;32137;48.728;9.142;2023-07-20T10:09:19;21.50;1.00
46438;DHT22;32137;48.728;9.142;2023-07-20T10:11:47;21.50;1.00
46438;DHT22;32137;48.728;9.142;2023-07-20T10:14:15;21.70;1.00
46438;DHT22;32137;48.728;9.142;2023-07-20T10:16:46;22.00;1.00
46438;DHT22;32137;48.728;9.142;2023-07-20T10:19:16;22.00;1.00
46438;DHT22;32137;48.728;9.142;2023-07-20T10:21:47;22.00;1.00
46438;DHT22;32137;48.728;9.142;2023-07-20T10:24:13;22.00;1.00
46438;DHT22;32137;48.728;9.142;2023-07-20T10:26:39;22.00;1.00
46438;DHT22;32137;48.728;9.142;2023-07-20T10:29:04;21.90;1.00
46438;DHT22;32137;48.728;9.142;2023-07-20T10:31:31;21.80;1.00
46438;DHT22;32137;48.728;9.142;2023-07-20T10:33:57;21.80;1.00
46438;DHT22;32137;48.728;9.142;2023-07-20T10:36:26;21.80;1.00
46438;DHT22;32137;48.728;9.142;2023-07-20T10:38:55;21.80;1.00
46438;DHT22;32137;48.728;9.142;2023-07-20T10:44:06;21.80;1.00
46438;DHT22;32137;48.728;9.142;2023-07-20T10:49:04;21.90;1.00
46438;DHT22;32137;48.728;9.142;2023-07-20T10:51:30;22.20;1.00
46438;DHT22;32137;48.728;9.142;2023-07-20T10:53:59;22.30;1.00
46438;DHT22;32137;48.728;9.142;2023-07-20T10:56:27;22.40;99.90
46438;DHT22;32137;48.728;9.142;2023-07-20T10:58:59;22.30;1.00
46438;DHT22;32137;48.728;9.142;2023-07-20T11:01:31;22.30;1.00
46438;DHT22;32137;48.728;9.142;2023-07-20T11:04:01;22.30;99.90
46438;DHT22;32137;48.728;9.142;2023-07-20T11:08:55;22.60;99.90
46438;DHT22;32137;48.728;9.142;2023-07-20T11:11:25;22.80;99.90
46438;DHT22;32137;48.728;9.142;2023-07-20T11:16:20;22.70;99.90
46438;DHT22;32137;48.728;9.142;2023-07-20T11:18:56;22.80;99.90
46438;DHT22;32137;48.728;9.142;2023-07-20T11:21:22;22.90;99.90
46438;DHT22;32137;48.728;9.142;2023-07-20T11:23:48;23.00;99.90
46438;DHT22;32137;48.728;9.142;2023-07-20T11:26:14;23.20;99.90
46438;DHT22;32137;48.728;9.142;2023-07-20T11:28:41;23.30;99.90
46438;DHT22;32137;48.728;9.142;2023-07-20T11:31:06;23.50;99.90
46438;DHT22;32137;48.728;9.142;2023-07-20T11:33:32;23.70;99.90
46438;DHT22;32137;48.728;9.142;2023-07-20T11:35:57;23.90;99.90
46438;DHT22;32137;48.728;9.142;2023-07-20T11:38:23;24.10;99.90
46438;DHT22;32137;48.728;9.142;2023-07-20T11:40:49;24.20;99.90
46438;DHT22;32137;48.728;9.142;2023-07-20T11:43:15;24.10;99.90
46438;DHT22;32137;48.728;9.142;2023-07-20T11:45:41;24.30;99.90
46438;DHT22;32137;48.728;9.142;2023-07-20T11:48:06;25.20;99.90
46438;DHT22;32137;48.728;9.142;2023-07-20T11:50:32;27.40;99.90
46438;DHT22;32137;48.728;9.142;2023-07-20T11:53:03;27.80;99.90
46438;DHT22;32137;48.728;9.142;2023-07-20T11:55:28;29.10;99.90
46438;DHT22;32137;48.728;9.142;2023-07-20T11:58:01;29.90;99.90
46438;DHT22;32137;48.728;9.142;2023-07-20T12:00:26;31.00;99.90
46438;DHT22;32137;48.728;9.142;2023-07-20T12:02:53;31.60;99.90
46438;DHT22;32137;48.728;9.142;2023-07-20T12:05:19;32.30;99.90
46438;DHT22;32137;48.728;9.142;2023-07-20T12:07:44;32.60;99.90
46438;DHT22;32137;48.728;9.142;2023-07-20T12:10:10;32.80;99.90
46438;DHT22;32137;48.728;9.142;2023-07-20T12:12:39;32.90;99.90
46438;DHT22;32137;48.728;9.142;2023-07-20T12:15:22;33.20;99.90
46438;DHT22;32137;48.728;9.142;2023-07-20T12:17:52;32.80;99.90
46438;DHT22;32137;48.728;9.142;2023-07-20T12:20:30;32.80;99.90
46438;DHT22;32137;48.728;9.142;2023-07-20T12:22:58;33.90;99.90
46438;DHT22;32137;48.728;9.142;2023-07-20T12:25:31;35.80;99.90
46438;DHT22;32137;48.728;9.142;2023-07-20T12:28:00;37.30;99.90
46438;DHT22;32137;48.728;9.142;2023-07-20T12:30:25;38.60;99.90
46438;DHT22;32137;48.728;9.142;2023-07-20T12:32:51;38.90;99.90
46438;DHT22;32137;48.728;9.142;2023-07-20T12:35:17;38.70;99.90
46438;DHT22;32137;48.728;9.142;2023-07-20T12:37:42;38.80;99.90
46438;DHT22;32137;48.728;9.142;2023-07-20T12:40:08;39.60;99.90
46438;DHT22;32137;48.728;9.142;2023-07-20T12:42:36;38.10;99.90
46438;DHT22;32137;48.728;9.142;2023-07-20T12:45:01;38.00;99.90
46438;DHT22;32137;48.728;9.142;2023-07-20T12:47:27;38.10;99.90
46438;DHT22;32137;48.728;9.142;2023-07-20T12:49:52;36.60;99.90
46438;DHT22;32137;48.728;9.142;2023-07-20T12:52:18;36.00;99.90
46438;DHT22;32137;48.728;9.142;2023-07-20T12:54:43;34.60;99.90
46438;DHT22;32137;48.728;9.142;2023-07-20T12:57:08;33.30;99.90
46438;DHT22;32137;48.728;9.142;2023-07-20T12:59:34;32.40;99.90
46438;DHT22;32137;48.728;9.142;2023-07-20T13:01:59;32.60;99.90
46438;DHT22;32137;48.728;9.142;2023-07-20T13:04:25;32.90;99.90
46438;DHT22;32137;48.728;9.142;2023-07-20T13:06:51;33.90;99.90
46438;DHT22;32137;48.728;9.142;2023-07-20T13:09:16;34.40;99.90
46438;DHT22;32137;48.728;9.142;2023-07-20T13:11:42;34.80;99.90
46438;DHT22;32137;48.728;9.142;2023-07-20T13:14:07;35.90;99.90
46438;DHT22;32137;48.728;9.142;2023-07-20T13:16:33;37.00;99.90
46438;DHT22;32137;48.728;9.142;2023-07-20T13:18:59;37.40;99.90
46438;DHT22;32137;48.728;9.142;2023-07-20T13:21:24;38.30;99.90
46438;DHT22;32137;48.728;9.142;2023-07-20T13:23:50;37.80;99.90
46438;DHT22;32137;48.728;9.142;2023-07-20T13:26:15;35.80;99.90
46438;DHT22;32137;48.728;9.142;2023-07-20T13:28:41;34.40;99.90
46438;DHT22;32137;48.728;9.142;2023-07-20T13:31:06;33.60;99.90
46438;DHT22;32137;48.728;9.142;2023-07-20T13:33:34;32.50;99.90
46438;DHT22;32137;48.728;9.142;2023-07-20T13:35:59;34.10;99.90
46438;DHT22;32137;48.728;9.142;2023-07-20T13:38:25;34.30;99.90
46438;DHT22;32137;48.728;9.142;2023-07-20T13:40:50;35.00;99.90
46438;DHT22;32137;48.728;9.142;2023-07-20T13:43:16;35.40;99.90
46438;DHT22;32137;48.728;9.142;2023-07-20T13:45:41;36.20;99.90
46438;DHT22;32137;48.728;9.142;2023-07-20T13:48:07;36.30;99.90
46438;DHT22;32137;48.728;9.142;2023-07-20T13:50:32;36.10;99.90
46438;DHT22;32137;48.728;9.142;2023-07-20T13:52:58;35.80;99.90
46438;DHT22;32137;48.728;9.142;2023-07-20T13:55:23;35.30;99.90
46438;DHT22;32137;48.728;9.142;2023-07-20T13:57:48;35.00;99.90
46438;DHT22;32137;48.728;9.142;2023-07-20T14:00:14;34.50;99.90
46438;DHT22;32137;48.728;9.142;2023-07-20T14:02:39;34.40;99.90
46438;DHT22;32137;48.728;9.142;2023-07-20T14:05:05;34.30;99.90
46438;DHT22;32137;48.728;9.142;2023-07-20T14:07:31;33.60;99.90
46438;DHT22;32137;48.728;9.142;2023-07-20T14:09:56;33.50;99.90
46438;DHT22;32137;48.728;9.142;2023-07-20T14:12:22;33.50;99.90
46438;DHT22;32137;48.728;9.142;2023-07-20T14:14:47;33.40;99.90
46438;DHT22;32137;48.728;9.142;2023-07-20T14:17:12;33.40;99.90
46438;DHT22;32137;48.728;9.142;2023-07-20T14:19:38;33.20;99.90
46438;DHT22;32137;48.728;9.142;2023-07-20T14:22:04;32.80;99.90
46438;DHT22;32137;48.728;9.142;2023-07-20T14:24:29;32.40;99.90
46438;DHT22;32137;48.728;9.142;2023-07-20T14:26:55;32.20;99.90
46438;DHT22;32137;48.728;9.142;2023-07-20T14:29:21;32.20;99.90
46438;DHT22;32137;48.728;9.142;2023-07-20T14:31:46;32.10;99.90
46438;DHT22;32137;48.728;9.142;2023-07-20T14:34:18;32.10;99.90
46438;DHT22;32137;48.728;9.142;2023-07-20T14:36:44;31.90;99.90
46438;DHT22;32137;48.728;9.142;2023-07-20T14:39:10;31.60;99.90
46438;DHT22;32137;48.728;9.142;2023-07-20T14:41:35;31.60;99.90
46438;DHT22;32137;48.728;9.142;2023-07-20T14:44:01;31.30;99.90
46438;DHT22;32137;48.728;9.142;2023-07-20T14:46:27;31.10;99.90
46438;DHT22;32137;48.728;9.142;2023-07-20T14:48:52;31.00;99.90
46438;DHT22;32137;48.728;9.142;2023-07-20T14:51:18;30.80;99.90
46438;DHT22;32137;48.728;9.142;2023-07-20T14:53:43;30.90;99.90
46438;DHT22;32137;48.728;9.142;2023-07-20T14:56:09;31.00;99.90
46438;DHT22;32137;48.728;9.142;2023-07-20T14:58:35;31.10;99.90
46438;DHT22;32137;48.728;9.142;2023-07-20T15:01:00;31.10;99.90
46438;DHT22;32137;48.728;9.142;2023-07-20T15:03:26;31.20;99.90
46438;DHT22;32137;48.728;9.142;2023-07-20T15:05:51;31.10;99.90
46438;DHT22;32137;48.728;9.142;2023-07-20T15:08:17;31.10;99.90
46438;DHT22;32137;48.728;9.142;2023-07-20T15:10:44;31.10;99.90
46438;DHT22;32137;48.728;9.142;2023-07-20T15:13:12;31.10;99.90
46438;DHT22;32137;48.728;9.142;2023-07-20T15:15:37;30.90;99.90
46438;DHT22;32137;48.728;9.142;2023-07-20T15:18:03;30.80;99.90
46438;DHT22;32137;48.728;9.142;2023-07-20T15:20:28;30.80;99.90
46438;DHT22;32137;48.728;9.142;2023-07-20T15:22:57;30.80;99.90
46438;DHT22;32137;48.728;9.142;2023-07-20T15:25:22;30.90;99.90
46438;DHT22;32137;48.728;9.142;2023-07-20T15:27:48;30.90;99.90
46438;DHT22;32137;48.728;9.142;2023-07-20T15:30:14;30.80;99.90
46438;DHT22;32137;48.728;9.142;2023-07-20T15:32:40;30.80;99.90
46438;DHT22;32137;48.728;9.142;2023-07-20T15:35:06;30.80;99.90
46438;DHT22;32137;48.728;9.142;2023-07-20T15:37:32;30.80;99.90
46438;DHT22;32137;48.728;9.142;2023-07-20T15:39:58;30.90;99.90
46438;DHT22;32137;48.728;9.142;2023-07-20T15:42:23;30.90;99.90
46438;DHT22;32137;48.728;9.142;2023-07-20T15:44:49;30.80;99.90
46438;DHT22;32137;48.728;9.142;2023-07-20T15:47:14;30.80;99.90
46438;DHT22;32137;48.728;9.142;2023-07-20T15:49:40;30.70;99.90